createdAt,value
2019-06-26T00:00:23.009Z,21.48
2019-06-26T00:02:53.819Z,21.61
2019-06-26T00:05:24.793Z,21.61
2019-06-26T00:07:56.773Z,21.57
2019-06-26T00:10:27.448Z,21.59
2019-06-26T00:12:58.576Z,21.51
2019-06-26T00:15:29.408Z,21.39
2019-06-26T00:18:00.231Z,21.20
2019-06-26T00:20:31.004Z,21.07
2019-06-26T00:23:02.452Z,21.03
2019-06-26T00:25:33.344Z,21.00
2019-06-26T00:28:04.625Z,21.10
2019-06-26T00:30:36.580Z,21.07
2019-06-26T00:33:07.406Z,21.20
2019-06-26T00:35:38.148Z,21.19
2019-06-26T00:38:08.953Z,21.22
2019-06-26T00:40:39.824Z,21.20
2019-06-26T00:43:10.731Z,21.22
2019-06-26T00:45:42.043Z,21.16
2019-06-26T00:48:12.717Z,21.22
2019-06-26T00:50:43.411Z,21.14
2019-06-26T00:53:14.713Z,20.83
2019-06-26T00:55:45.691Z,20.59
2019-06-26T00:58:18.226Z,20.48
2019-06-26T01:00:52.004Z,20.42
2019-06-26T01:03:22.739Z,20.45
2019-06-26T01:05:53.781Z,20.63
2019-06-26T01:08:25.625Z,20.67
2019-06-26T01:10:56.704Z,20.60
2019-06-26T01:13:28.046Z,20.62
2019-06-26T01:15:58.850Z,20.58
2019-06-26T01:18:30.175Z,20.56
2019-06-26T01:21:01.335Z,20.61
2019-06-26T01:23:32.253Z,20.69
2019-06-26T01:26:03.301Z,20.69
2019-06-26T01:28:34.725Z,20.58
2019-06-26T01:31:06.027Z,20.49
2019-06-26T01:33:37.864Z,20.40
2019-06-26T01:36:09.815Z,20.40
2019-06-26T01:38:41.148Z,20.33
2019-06-26T01:41:11.996Z,20.31
2019-06-26T01:43:43.312Z,20.32
2019-06-26T01:46:14.148Z,20.28
2019-06-26T01:48:45.118Z,20.27
2019-06-26T01:51:15.969Z,20.21
2019-06-26T01:53:46.840Z,20.17
2019-06-26T01:56:17.807Z,20.14
2019-06-26T01:58:48.623Z,20.10
2019-06-26T02:01:19.332Z,20.02
2019-06-26T02:03:50.244Z,19.89
2019-06-26T02:06:21.007Z,19.87
2019-06-26T02:08:51.944Z,19.78
2019-06-26T02:11:22.726Z,19.72
2019-06-26T02:13:53.515Z,19.72
2019-06-26T02:16:26.019Z,19.67
2019-06-26T02:19:01.534Z,19.75
2019-06-26T02:21:33.610Z,19.68
2019-06-26T02:24:04.478Z,19.69
2019-06-26T02:26:36.019Z,19.72
2019-06-26T02:29:07.140Z,19.66
2019-06-26T02:31:38.622Z,19.62
2019-06-26T02:34:09.347Z,19.58
2019-06-26T02:36:40.339Z,19.59
2019-06-26T02:39:11.319Z,19.55
2019-06-26T02:41:42.183Z,19.57
2019-06-26T02:44:13.407Z,19.57
2019-06-26T02:46:44.116Z,19.61
2019-06-26T02:49:14.841Z,19.61
2019-06-26T02:51:45.691Z,19.65
2019-06-26T02:54:16.816Z,19.79
2019-06-26T02:56:47.605Z,20.00
2019-06-26T02:59:18.335Z,20.28
2019-06-26T03:01:49.092Z,20.52
2019-06-26T03:04:19.969Z,20.65
2019-06-26T03:06:50.966Z,20.80
2019-06-26T03:09:22.529Z,21.01
2019-06-26T03:11:53.386Z,21.29
2019-06-26T03:14:24.818Z,21.41
2019-06-26T03:16:55.710Z,21.85
2019-06-26T03:19:27.280Z,22.54
2019-06-26T03:21:58.029Z,23.09
2019-06-26T03:24:28.705Z,23.51
2019-06-26T03:26:59.441Z,24.00
2019-06-26T03:29:30.325Z,24.63
2019-06-26T03:32:01.056Z,25.10
2019-06-26T03:34:32.433Z,25.63
2019-06-26T03:37:03.389Z,25.33
2019-06-26T03:39:34.407Z,25.69
2019-06-26T03:42:06.509Z,26.30
2019-06-26T03:44:38.045Z,27.38
2019-06-26T03:47:09.184Z,27.74
2019-06-26T03:49:39.921Z,28.67
2019-06-26T03:52:12.533Z,29.09
2019-06-26T03:54:43.289Z,29.32
2019-06-26T03:57:14.202Z,27.93
2019-06-26T03:59:45.364Z,28.42
2019-06-26T04:02:16.120Z,29.47
2019-06-26T04:04:46.846Z,30.63
2019-06-26T04:07:17.715Z,31.50
2019-06-26T04:09:49.377Z,31.98
2019-06-26T04:12:20.170Z,32.33
2019-06-26T04:14:51.313Z,33.36
2019-06-26T04:17:22.412Z,33.04
2019-06-26T04:19:53.150Z,33.07
2019-06-26T04:22:24.137Z,33.56
2019-06-26T04:24:56.176Z,33.62
2019-06-26T04:27:27.038Z,33.36
2019-06-26T04:29:57.756Z,33.59
2019-06-26T04:32:28.483Z,33.81
2019-06-26T04:34:59.221Z,34.62
2019-06-26T04:37:30.603Z,34.90
2019-06-26T04:40:01.254Z,35.58
2019-06-26T04:42:32.121Z,36.56
2019-06-26T04:45:03.296Z,36.39
2019-06-26T04:47:34.560Z,36.97
2019-06-26T04:50:10.128Z,37.53
2019-06-26T04:52:41.785Z,37.30
2019-06-26T04:55:14.026Z,37.77
2019-06-26T04:57:45.498Z,37.86
2019-06-26T05:00:17.367Z,37.84
2019-06-26T05:02:48.259Z,37.83
2019-06-26T05:05:19.057Z,36.94
2019-06-26T05:07:49.906Z,35.55
2019-06-26T05:10:21.989Z,35.70
2019-06-26T05:12:52.838Z,36.19
2019-06-26T05:15:23.587Z,36.20
2019-06-26T05:17:54.917Z,34.54
2019-06-26T05:20:27.077Z,33.44
2019-06-26T05:22:57.912Z,33.37
2019-06-26T05:25:28.758Z,32.94
2019-06-26T05:27:59.475Z,32.77
2019-06-26T05:30:30.361Z,31.48
2019-06-26T05:33:01.291Z,30.30
2019-06-26T05:35:35.010Z,29.44
2019-06-26T05:38:04.446Z,28.53
2019-06-26T05:40:35.191Z,28.07
2019-06-26T05:43:06.141Z,28.07
2019-06-26T05:45:36.862Z,27.86
2019-06-26T05:48:07.968Z,27.71
2019-06-26T05:50:38.688Z,27.63
2019-06-26T05:53:09.640Z,27.62
2019-06-26T05:55:40.414Z,27.54
2019-06-26T05:58:11.409Z,27.57
2019-06-26T06:00:42.245Z,27.66
2019-06-26T06:03:13.006Z,27.57
2019-06-26T06:05:45.253Z,27.50
2019-06-26T06:08:16.178Z,27.76
2019-06-26T06:10:47.225Z,27.81
2019-06-26T06:13:18.043Z,27.90
2019-06-26T06:15:49.749Z,27.91
2019-06-26T06:18:21.994Z,27.82
2019-06-26T06:20:52.924Z,28.04
2019-06-26T06:23:23.819Z,28.16
2019-06-26T06:25:55.579Z,28.17
2019-06-26T06:28:26.486Z,28.08
2019-06-26T06:30:57.549Z,28.37
2019-06-26T06:33:28.543Z,28.46
2019-06-26T06:35:59.384Z,28.51
2019-06-26T06:38:30.193Z,28.54
2019-06-26T06:41:01.179Z,28.51
2019-06-26T06:43:32.136Z,28.67
2019-06-26T06:46:03.237Z,28.81
2019-06-26T06:48:34.187Z,28.80
2019-06-26T06:51:07.642Z,29.05
2019-06-26T06:53:38.405Z,29.13
2019-06-26T06:56:09.386Z,29.25
2019-06-26T06:58:41.306Z,29.35
2019-06-26T07:01:12.161Z,29.91
2019-06-26T07:03:43.048Z,32.64
2019-06-26T07:06:14.042Z,35.50
2019-06-26T07:08:44.875Z,37.09
2019-06-26T07:11:16.680Z,37.52
2019-06-26T07:13:47.866Z,38.98
2019-06-26T07:16:19.192Z,39.53
2019-06-26T07:18:50.238Z,39.96
2019-06-26T07:21:21.474Z,40.24
2019-06-26T07:23:52.527Z,41.47
2019-06-26T07:26:23.501Z,42.92
2019-06-26T07:28:54.871Z,42.00
2019-06-26T07:31:25.511Z,43.26
2019-06-26T07:33:57.736Z,43.40
2019-06-26T07:36:28.632Z,43.12
2019-06-26T07:38:59.811Z,42.97
2019-06-26T07:41:31.186Z,43.96
2019-06-26T07:44:02.719Z,43.17
2019-06-26T07:46:34.046Z,43.69
2019-06-26T07:49:05.181Z,43.74
2019-06-26T07:51:36.020Z,43.03
2019-06-26T07:54:06.939Z,42.76
2019-06-26T07:56:37.736Z,43.27
2019-06-26T07:59:11.274Z,43.49
2019-06-26T08:01:42.198Z,43.67
2019-06-26T08:04:13.415Z,44.07
2019-06-26T08:06:48.268Z,44.84
2019-06-26T08:09:19.132Z,44.15
2019-06-26T08:11:50.031Z,44.06
2019-06-26T08:14:21.004Z,44.53
2019-06-26T08:16:52.378Z,44.33
2019-06-26T08:19:23.651Z,45.13
2019-06-26T08:21:54.506Z,43.87
2019-06-26T08:24:25.533Z,43.33
2019-06-26T08:26:56.382Z,43.48
2019-06-26T08:29:27.301Z,43.85
2019-06-26T08:31:59.892Z,43.16
2019-06-26T08:34:31.469Z,42.83
2019-06-26T08:37:02.550Z,41.68
2019-06-26T08:39:33.956Z,41.72
2019-06-26T08:42:05.286Z,42.05
2019-06-26T08:44:36.328Z,42.19
2019-06-26T08:47:07.415Z,41.84
2019-06-26T08:49:38.714Z,42.22
2019-06-26T08:52:09.680Z,41.83
2019-06-26T08:54:41.572Z,42.17
2019-06-26T08:57:13.160Z,41.68
2019-06-26T08:59:44.366Z,42.21
2019-06-26T09:02:15.300Z,41.73
2019-06-26T09:04:46.585Z,41.83
2019-06-26T09:07:17.556Z,42.16
2019-06-26T09:09:48.941Z,42.36
2019-06-26T09:12:21.073Z,42.10
2019-06-26T09:14:53.037Z,42.44
2019-06-26T09:17:24.348Z,42.38
2019-06-26T09:19:55.381Z,42.86
2019-06-26T09:22:26.530Z,43.53
2019-06-26T09:24:57.864Z,43.16
2019-06-26T09:27:29.690Z,42.44
2019-06-26T09:30:01.048Z,42.16
2019-06-26T09:32:31.998Z,42.55
2019-06-26T09:35:03.399Z,43.21
2019-06-26T09:37:35.083Z,42.74
2019-06-26T09:40:07.274Z,42.94
2019-06-26T09:42:38.182Z,42.56
2019-06-26T09:45:10.130Z,41.93
2019-06-26T09:47:41.040Z,43.04
2019-06-26T09:50:12.748Z,43.63
2019-06-26T09:52:46.065Z,43.81
2019-06-26T09:55:20.627Z,44.20
2019-06-26T09:57:51.551Z,43.43
2019-06-26T10:00:24.590Z,43.95
2019-06-26T10:02:55.499Z,44.03
2019-06-26T10:05:26.405Z,42.57
2019-06-26T10:07:57.298Z,42.51
2019-06-26T10:10:29.193Z,42.05
2019-06-26T10:13:02.119Z,42.62
2019-06-26T10:15:33.142Z,43.03
2019-06-26T10:18:05.336Z,42.65
2019-06-26T10:20:36.152Z,42.63
2019-06-26T10:23:07.271Z,43.29
2019-06-26T10:25:38.340Z,43.26
2019-06-26T10:28:09.284Z,43.40
2019-06-26T10:30:40.645Z,43.87
2019-06-26T10:33:11.557Z,43.71
2019-06-26T10:35:42.412Z,44.31
2019-06-26T10:38:13.820Z,44.71
2019-06-26T10:40:45.444Z,44.75
2019-06-26T10:43:34.842Z,44.01
2019-06-26T10:46:06.649Z,43.51
2019-06-26T10:48:37.629Z,43.14
2019-06-26T10:51:08.582Z,44.44
2019-06-26T10:53:39.533Z,44.69
2019-06-26T10:56:10.749Z,44.44
2019-06-26T10:58:44.524Z,44.76
2019-06-26T11:01:15.794Z,44.16
2019-06-26T11:03:47.636Z,45.14
2019-06-26T11:06:19.185Z,45.31
2019-06-26T11:08:50.759Z,44.65
2019-06-26T11:11:21.701Z,44.12
2019-06-26T11:13:52.852Z,44.39
2019-06-26T11:16:24.783Z,45.12
2019-06-26T11:18:56.458Z,44.54
2019-06-26T11:21:27.907Z,45.14
2019-06-26T11:23:59.101Z,44.06
2019-06-26T11:26:30.181Z,44.07
2019-06-26T11:29:01.390Z,44.45
2019-06-26T11:31:32.217Z,43.84
2019-06-26T11:34:03.577Z,44.04
2019-06-26T11:36:35.512Z,44.43
2019-06-26T11:39:07.675Z,44.34
2019-06-26T11:41:39.014Z,44.36
2019-06-26T11:44:09.785Z,44.17
2019-06-26T11:46:40.773Z,44.22
2019-06-26T11:49:12.185Z,44.82
2019-06-26T11:51:43.864Z,45.04
2019-06-26T11:54:14.899Z,45.02
2019-06-26T11:56:45.975Z,45.23
2019-06-26T11:59:17.503Z,44.18
2019-06-26T12:01:48.959Z,43.05
2019-06-26T12:04:20.963Z,43.24
2019-06-26T12:06:53.356Z,43.56
2019-06-26T12:09:24.369Z,43.99
2019-06-26T12:11:55.310Z,44.41
2019-06-26T12:14:28.506Z,44.67
2019-06-26T12:16:59.375Z,43.95
2019-06-26T12:19:30.467Z,43.73
2019-06-26T12:22:01.230Z,44.26
2019-06-26T12:24:32.526Z,43.76
2019-06-26T12:27:03.461Z,44.15
2019-06-26T12:29:34.710Z,43.90
2019-06-26T12:32:06.214Z,43.18
2019-06-26T12:34:37.278Z,43.09
2019-06-26T12:37:08.088Z,42.42
2019-06-26T12:39:38.936Z,43.25
2019-06-26T12:42:09.825Z,43.25
2019-06-26T12:44:40.921Z,43.21
2019-06-26T12:47:15.726Z,43.39
2019-06-26T12:49:46.665Z,43.32
2019-06-26T12:52:17.993Z,43.20
2019-06-26T12:54:49.873Z,43.25
2019-06-26T12:57:21.034Z,43.49
2019-06-26T12:59:57.749Z,43.57
2019-06-26T13:02:25.747Z,43.17
2019-06-26T13:04:56.646Z,42.49
2019-06-26T13:07:27.421Z,43.16
2019-06-26T13:09:58.266Z,43.50
2019-06-26T13:12:29.633Z,43.43
2019-06-26T13:15:01.776Z,43.14
2019-06-26T13:17:34.297Z,42.94
2019-06-26T13:20:10.692Z,43.07
2019-06-26T13:22:41.950Z,42.57
2019-06-26T13:25:15.766Z,43.06
2019-06-26T13:27:45.964Z,42.94
2019-06-26T13:30:32.695Z,43.20
2019-06-26T13:33:04.041Z,43.76
2019-06-26T13:35:35.333Z,42.78
2019-06-26T13:38:06.534Z,43.00
2019-06-26T13:40:40.790Z,42.79
2019-06-26T13:43:10.696Z,42.54
2019-06-26T13:45:42.334Z,42.84
2019-06-26T13:48:13.487Z,42.82
2019-06-26T13:50:44.476Z,42.89
2019-06-26T13:53:16.468Z,43.31
2019-06-26T13:55:47.348Z,42.80
2019-06-26T13:58:18.303Z,43.35
2019-06-26T14:00:49.070Z,41.65
2019-06-26T14:03:23.478Z,42.03
2019-06-26T14:06:01.658Z,42.37
2019-06-26T14:08:33.036Z,42.76
2019-06-26T14:11:07.303Z,42.99
2019-06-26T14:13:41.658Z,42.79
2019-06-26T14:16:11.351Z,40.62
2019-06-26T14:18:43.938Z,40.60
2019-06-26T14:21:24.964Z,41.21
2019-06-26T14:23:49.758Z,42.10
2019-06-26T14:26:20.895Z,42.13
2019-06-26T14:28:54.177Z,42.36
2019-06-26T14:31:25.541Z,42.82
2019-06-26T14:33:56.884Z,43.16
2019-06-26T14:36:28.288Z,43.14
2019-06-26T14:38:59.363Z,43.16
2019-06-26T14:41:30.226Z,43.17
2019-06-26T14:44:01.095Z,43.31
2019-06-26T14:46:32.424Z,41.11
2019-06-26T14:49:04.374Z,41.93
2019-06-26T14:51:43.849Z,41.67
2019-06-26T14:54:09.115Z,41.41
2019-06-26T14:56:40.534Z,42.38
2019-06-26T14:59:12.154Z,42.61
2019-06-26T15:01:43.581Z,41.93
2019-06-26T15:04:14.807Z,42.12
2019-06-26T15:06:45.820Z,40.60
2019-06-26T15:09:16.702Z,39.49
2019-06-26T15:11:47.643Z,40.80
2019-06-26T15:14:18.626Z,41.26
2019-06-26T15:16:50.813Z,41.17
2019-06-26T15:19:21.492Z,41.25
2019-06-26T15:21:58.365Z,40.27
2019-06-26T15:24:25.115Z,39.99
2019-06-26T15:26:55.944Z,40.48
2019-06-26T15:29:26.770Z,41.39
2019-06-26T15:31:57.898Z,41.62
2019-06-26T15:34:28.988Z,41.58
2019-06-26T15:37:00.136Z,41.53
2019-06-26T15:39:31.067Z,41.41
2019-06-26T15:42:01.798Z,41.06
2019-06-26T15:44:32.528Z,40.10
2019-06-26T15:47:04.982Z,40.80
2019-06-26T15:49:35.730Z,40.40
2019-06-26T15:52:14.928Z,41.51
2019-06-26T15:54:39.195Z,40.46
2019-06-26T15:57:10.146Z,39.70
2019-06-26T15:59:42.259Z,40.02
2019-06-26T16:02:13.313Z,40.71
2019-06-26T16:04:44.480Z,40.09
2019-06-26T16:07:16.390Z,39.87
2019-06-26T16:09:48.067Z,40.59
2019-06-26T16:12:19.153Z,41.09
2019-06-26T16:14:50.042Z,40.71
2019-06-26T16:17:35.634Z,40.97
2019-06-26T16:20:07.904Z,38.90
2019-06-26T16:22:40.589Z,39.21
2019-06-26T16:25:11.589Z,38.88
2019-06-26T16:27:42.529Z,38.48
2019-06-26T16:30:13.614Z,38.43
2019-06-26T16:32:44.542Z,38.43
2019-06-26T16:35:15.518Z,38.24
2019-06-26T16:37:47.434Z,38.49
2019-06-26T16:40:20.025Z,38.37
2019-06-26T16:42:51.424Z,38.53
2019-06-26T16:45:22.482Z,38.01
2019-06-26T16:47:53.337Z,38.16
2019-06-26T16:50:24.045Z,37.69
2019-06-26T16:52:54.950Z,37.82
2019-06-26T16:55:25.967Z,38.65
2019-06-26T16:57:56.841Z,39.17
2019-06-26T17:00:27.636Z,39.11
2019-06-26T17:02:58.503Z,38.86
2019-06-26T17:05:29.901Z,39.09
2019-06-26T17:08:00.634Z,39.62
2019-06-26T17:10:31.465Z,39.95
2019-06-26T17:13:04.298Z,39.25
2019-06-26T17:15:35.380Z,38.60
2019-06-26T17:18:07.054Z,38.66
2019-06-26T17:20:38.944Z,37.90
2019-06-26T17:23:10.932Z,38.03
2019-06-26T17:25:42.445Z,37.92
2019-06-26T17:28:13.751Z,38.46
2019-06-26T17:30:45.391Z,38.12
2019-06-26T17:33:17.494Z,37.94
2019-06-26T17:35:48.659Z,38.48
2019-06-26T17:38:19.341Z,38.40
2019-06-26T17:40:51.855Z,37.96
2019-06-26T17:43:25.923Z,37.93
2019-06-26T17:45:59.055Z,38.03
2019-06-26T17:48:31.297Z,37.99
2019-06-26T17:51:03.141Z,38.20
2019-06-26T17:53:34.133Z,38.16
2019-06-26T17:56:05.207Z,38.24
2019-06-26T17:58:36.110Z,38.22
2019-06-26T18:01:07.238Z,38.03
2019-06-26T18:03:39.108Z,37.92
2019-06-26T18:06:09.948Z,37.90
2019-06-26T18:08:41.229Z,37.92
2019-06-26T18:11:12.075Z,37.85
2019-06-26T18:13:42.961Z,37.79
2019-06-26T18:16:13.743Z,37.76
2019-06-26T18:18:44.864Z,37.66
2019-06-26T18:21:15.958Z,37.66
2019-06-26T18:23:47.201Z,37.12
2019-06-26T18:26:18.516Z,36.92
2019-06-26T18:28:49.475Z,36.87
2019-06-26T18:31:21.451Z,36.81
2019-06-26T18:33:52.565Z,36.78
2019-06-26T18:36:23.653Z,36.73
2019-06-26T18:38:54.530Z,36.36
2019-06-26T18:41:25.518Z,36.15
2019-06-26T18:43:56.344Z,35.69
2019-06-26T18:46:27.543Z,35.42
2019-06-26T18:48:58.811Z,35.20
2019-06-26T18:51:30.454Z,35.13
2019-06-26T18:54:04.352Z,34.90
2019-06-26T18:56:35.613Z,34.82
2019-06-26T18:59:08.063Z,34.77
2019-06-26T19:01:40.535Z,34.62
2019-06-26T19:04:13.694Z,34.49
2019-06-26T19:06:44.944Z,34.40
2019-06-26T19:09:17.414Z,34.25
2019-06-26T19:11:48.596Z,34.20
2019-06-26T19:14:19.911Z,34.08
2019-06-26T19:16:50.959Z,33.88
2019-06-26T19:19:21.951Z,33.72
2019-06-26T19:21:55.086Z,33.59
2019-06-26T19:24:26.096Z,33.42
2019-06-26T19:26:57.228Z,33.24
2019-06-26T19:29:28.109Z,33.16
2019-06-26T19:32:00.154Z,33.04
2019-06-26T19:34:31.144Z,33.00
2019-06-26T19:37:02.640Z,32.96
2019-06-26T19:39:33.602Z,32.86
2019-06-26T19:42:04.755Z,32.79
2019-06-26T19:44:35.845Z,32.71
2019-06-26T19:47:08.730Z,32.57
2019-06-26T19:49:40.202Z,32.44
2019-06-26T19:52:11.891Z,32.35
2019-06-26T19:54:43.009Z,32.22
2019-06-26T19:57:14.182Z,32.06
2019-06-26T19:59:44.827Z,31.90
2019-06-26T20:02:15.618Z,31.76
2019-06-26T20:04:48.325Z,31.65
2019-06-26T20:07:19.414Z,31.52
2019-06-26T20:09:50.398Z,31.42
2019-06-26T20:12:21.749Z,31.37
2019-06-26T20:14:52.924Z,31.26
2019-06-26T20:17:25.016Z,31.17
2019-06-26T20:19:56.871Z,31.06
2019-06-26T20:22:27.669Z,31.01
2019-06-26T20:25:01.488Z,30.90
2019-06-26T20:27:33.135Z,30.83
2019-06-26T20:30:09.419Z,30.74
2019-06-26T20:32:39.375Z,30.63
2019-06-26T20:35:10.577Z,30.58
2019-06-26T20:37:41.711Z,30.52
2019-06-26T20:40:12.798Z,30.46
2019-06-26T20:42:46.364Z,30.38
2019-06-26T20:45:17.712Z,30.26
2019-06-26T20:47:48.943Z,30.22
2019-06-26T20:50:19.734Z,30.12
2019-06-26T20:52:50.910Z,30.00
2019-06-26T20:55:21.699Z,29.95
2019-06-26T20:57:53.335Z,29.82
2019-06-26T21:00:24.412Z,29.75
2019-06-26T21:02:57.900Z,29.66
2019-06-26T21:05:29.565Z,29.55
2019-06-26T21:08:00.433Z,29.48
2019-06-26T21:10:31.304Z,29.38
2019-06-26T21:13:02.268Z,29.30
2019-06-26T21:15:34.096Z,29.22
2019-06-26T21:18:05.327Z,29.16
2019-06-26T21:20:37.090Z,29.05
2019-06-26T21:23:18.011Z,29.02
2019-06-26T21:25:40.697Z,28.88
2019-06-26T21:28:11.598Z,28.78
2019-06-26T21:30:42.943Z,28.64
2019-06-26T21:33:13.886Z,28.55
2019-06-26T21:35:45.955Z,28.42
2019-06-26T21:38:16.894Z,28.34
2019-06-26T21:40:48.119Z,28.23
2019-06-26T21:43:19.304Z,28.11
2019-06-26T21:45:51.569Z,28.01
2019-06-26T21:48:22.840Z,27.99
2019-06-26T21:50:54.036Z,27.89
2019-06-26T21:53:25.167Z,27.81
2019-06-26T21:56:14.052Z,27.75
2019-06-26T21:59:03.683Z,27.65
2019-06-26T22:01:52.461Z,27.58
2019-06-26T22:04:41.806Z,27.56
2019-06-26T22:07:29.513Z,27.48
2019-06-26T22:10:01.899Z,27.36
2019-06-26T22:12:34.448Z,27.28
2019-06-26T22:15:06.603Z,27.17
2019-06-26T22:17:39.809Z,27.10
2019-06-26T22:20:12.645Z,27.10
2019-06-26T22:22:44.913Z,27.03
2019-06-26T22:25:16.205Z,26.98
2019-06-26T22:27:47.235Z,26.92
2019-06-26T22:30:18.915Z,26.85
2019-06-26T22:32:49.646Z,26.80
2019-06-26T22:35:20.311Z,26.74
2019-06-26T22:37:50.948Z,26.71
2019-06-26T22:40:23.742Z,26.60
2019-06-26T22:42:54.749Z,26.55
2019-06-26T22:45:25.736Z,26.46
2019-06-26T22:47:56.907Z,26.39
2019-06-26T22:50:27.851Z,26.35
2019-06-26T22:52:58.816Z,26.24
2019-06-26T22:55:29.500Z,26.16
2019-06-26T22:58:00.436Z,26.12
2019-06-26T23:00:31.379Z,26.05
2019-06-26T23:03:02.382Z,25.98
2019-06-26T23:05:33.570Z,25.89
2019-06-26T23:08:04.706Z,25.90
2019-06-26T23:10:35.680Z,25.83
2019-06-26T23:13:09.476Z,25.74
2019-06-26T23:15:39.299Z,25.68
2019-06-26T23:18:10.314Z,25.58
2019-06-26T23:20:41.903Z,25.58
2019-06-26T23:23:12.878Z,25.53
2019-06-26T23:25:43.786Z,25.41
2019-06-26T23:28:14.610Z,25.34
2019-06-26T23:30:45.599Z,25.33
2019-06-26T23:33:16.488Z,25.20
2019-06-26T23:35:47.371Z,25.20
2019-06-26T23:38:18.077Z,25.12
2019-06-26T23:40:48.825Z,25.12
2019-06-26T23:43:19.633Z,25.11
2019-06-26T23:45:51.255Z,25.05
2019-06-26T23:48:22.123Z,25.02
2019-06-26T23:50:52.793Z,24.90
2019-06-26T23:53:24.021Z,24.86
2019-06-26T23:55:54.668Z,24.78
2019-06-26T23:58:25.472Z,24.71
